createdAt,value
2023-03-03T00:03:02.432Z,2.64
2023-03-03T00:08:07.270Z,2.58
2023-03-03T00:13:16.456Z,2.57
2023-03-03T00:18:26.785Z,2.60
2023-03-03T00:23:38.141Z,2.62
2023-03-03T00:28:47.288Z,2.63
2023-03-03T00:33:54.924Z,2.63
2023-03-03T00:39:17.290Z,2.56
2023-03-03T00:44:44.936Z,2.67
2023-03-03T00:49:48.106Z,2.54
2023-03-03T00:54:52.627Z,2.47
2023-03-03T00:59:56.045Z,2.51
2023-03-03T01:04:59.594Z,2.56
2023-03-03T01:10:04.069Z,2.56
2023-03-03T01:15:08.797Z,2.53
2023-03-03T01:20:14.104Z,2.55
2023-03-03T01:25:18.800Z,2.47
2023-03-03T01:30:22.363Z,2.55
2023-03-03T01:35:26.323Z,2.55
2023-03-03T01:40:32.552Z,2.54
2023-03-03T01:46:06.368Z,2.46
2023-03-03T01:51:17.078Z,2.38
2023-03-03T01:56:21.591Z,2.43
2023-03-03T02:01:29.520Z,2.38
2023-03-03T02:06:36.822Z,2.27
2023-03-03T02:11:44.272Z,2.24
2023-03-03T02:16:47.517Z,2.26
2023-03-03T02:21:51.325Z,2.22
2023-03-03T02:26:56.513Z,2.16
2023-03-03T02:31:59.793Z,2.10
2023-03-03T02:37:04.902Z,2.06
2023-03-03T02:42:14.180Z,2.10
2023-03-03T02:47:17.283Z,2.20
2023-03-03T02:52:20.544Z,2.17
2023-03-03T02:57:26.523Z,2.19
2023-03-03T03:02:29.612Z,2.19
2023-03-03T03:07:32.827Z,2.25
2023-03-03T03:12:37.279Z,2.24
2023-03-03T03:17:41.082Z,2.28
2023-03-03T03:22:44.579Z,2.29
2023-03-03T03:27:49.526Z,2.30
2023-03-03T03:32:52.869Z,2.22
2023-03-03T03:37:56.181Z,2.12
2023-03-03T03:43:01.772Z,2.09
2023-03-03T03:48:05.168Z,2.04
2023-03-03T03:53:09.203Z,2.09
2023-03-03T03:58:15.672Z,2.12
2023-03-03T04:03:19.170Z,2.15
2023-03-03T04:08:22.466Z,2.15
2023-03-03T04:13:28.993Z,2.07
2023-03-03T04:18:32.367Z,2.01
2023-03-03T04:23:35.566Z,2.03
2023-03-03T04:28:40.178Z,2.03
2023-03-03T04:33:43.853Z,2.08
2023-03-03T04:38:47.000Z,2.17
2023-03-03T04:43:51.575Z,2.26
2023-03-03T04:48:55.559Z,2.25
2023-03-03T04:54:02.753Z,2.22
2023-03-03T04:59:07.563Z,2.27
2023-03-03T05:04:11.234Z,2.31
2023-03-03T05:09:15.371Z,2.32
2023-03-03T05:14:26.400Z,2.33
2023-03-03T05:19:29.884Z,2.22
2023-03-03T05:24:33.204Z,2.13
2023-03-03T05:30:08.128Z,2.19
2023-03-03T05:35:13.187Z,2.25
2023-03-03T05:40:44.425Z,2.31
2023-03-03T05:45:49.465Z,2.28
2023-03-03T05:51:08.488Z,2.30
2023-03-03T05:56:11.672Z,2.37
2023-03-03T06:01:20.844Z,2.43
2023-03-03T06:06:35.125Z,2.45
2023-03-03T06:11:49.267Z,2.37
2023-03-03T06:16:54.726Z,2.34
2023-03-03T06:22:31.529Z,2.35
2023-03-03T06:27:35.357Z,2.38
2023-03-03T06:32:40.289Z,2.42
2023-03-03T06:37:43.999Z,2.44
2023-03-03T06:42:47.650Z,2.48
2023-03-03T06:53:43.842Z,2.50
2023-03-03T06:59:02.800Z,2.52
2023-03-03T07:04:15.239Z,2.50
2023-03-03T07:09:24.114Z,2.38
2023-03-03T07:14:27.465Z,2.33
2023-03-03T07:19:54.251Z,2.41
2023-03-03T07:25:04.752Z,2.47
2023-03-03T07:30:25.726Z,2.57
2023-03-03T07:35:39.957Z,2.57
2023-03-03T07:40:49.450Z,2.49
2023-03-03T07:47:47.785Z,2.49
2023-03-03T07:58:49.682Z,2.72
2023-03-03T08:04:02.117Z,2.80
2023-03-03T08:09:55.086Z,2.88
2023-03-03T08:15:19.122Z,2.92
2023-03-03T08:20:54.043Z,3.03
2023-03-03T08:26:00.024Z,3.20
2023-03-03T08:31:16.717Z,3.34
2023-03-03T08:37:05.881Z,3.38
2023-03-03T08:42:09.043Z,3.43
2023-03-03T08:47:13.735Z,3.47
2023-03-03T08:52:38.745Z,3.54
2023-03-03T08:57:58.357Z,3.54
2023-03-03T09:03:03.239Z,3.63
2023-03-03T09:08:07.238Z,3.74
2023-03-03T09:13:15.316Z,3.80
2023-03-03T09:18:23.768Z,3.81
2023-03-03T09:23:35.096Z,3.87
2023-03-03T09:28:39.077Z,4.01
2023-03-03T09:33:45.625Z,4.08
2023-03-03T09:38:49.362Z,4.15
2023-03-03T09:44:17.400Z,4.22
2023-03-03T09:49:32.377Z,4.22
2023-03-03T09:54:55.150Z,4.22
2023-03-03T10:00:23.853Z,4.30
2023-03-03T10:05:39.009Z,4.26
2023-03-03T10:10:51.681Z,4.31
2023-03-03T10:16:20.891Z,4.35
2023-03-03T10:21:37.120Z,4.41
2023-03-03T10:27:12.658Z,4.55
2023-03-03T10:32:45.694Z,4.68
2023-03-03T10:38:05.449Z,4.77
2023-03-03T10:43:31.138Z,4.88
2023-03-03T10:49:01.099Z,4.90
2023-03-03T10:54:19.905Z,4.97
2023-03-03T10:59:41.199Z,4.85
2023-03-03T11:04:56.787Z,4.85
2023-03-03T11:10:14.971Z,4.97
2023-03-03T11:15:44.128Z,4.99
2023-03-03T11:20:55.442Z,5.08
2023-03-03T11:26:09.788Z,5.17
2023-03-03T11:31:22.543Z,5.17
2023-03-03T11:36:34.605Z,5.20
2023-03-03T11:41:42.437Z,5.23
2023-03-03T11:46:48.859Z,5.39
2023-03-03T11:52:04.178Z,5.47
2023-03-03T11:57:21.569Z,5.49
2023-03-03T12:02:45.365Z,5.35
2023-03-03T12:07:58.579Z,5.40
2023-03-03T12:13:07.859Z,5.52
2023-03-03T12:18:46.358Z,5.64
2023-03-03T12:24:07.973Z,5.73
2023-03-03T12:29:23.280Z,5.74
2023-03-03T12:34:35.274Z,5.81
2023-03-03T12:39:46.356Z,5.82
2023-03-03T12:45:00.755Z,5.81
2023-03-03T12:50:22.092Z,5.90
2023-03-03T12:55:36.738Z,5.89
2023-03-03T13:00:51.546Z,5.87
2023-03-03T13:06:01.971Z,5.84
2023-03-03T13:11:24.484Z,5.93
2023-03-03T13:16:41.014Z,5.95
2023-03-03T13:21:51.501Z,5.94
2023-03-03T13:26:59.987Z,6.00
2023-03-03T13:32:13.875Z,6.00
2023-03-03T13:37:22.146Z,5.93
2023-03-03T13:42:32.536Z,5.94
2023-03-03T13:47:47.227Z,5.92
2023-03-03T13:53:04.825Z,5.88
2023-03-03T13:58:22.060Z,5.92
2023-03-03T14:04:00.873Z,5.97
2023-03-03T14:09:36.422Z,5.98
2023-03-03T14:14:48.609Z,5.96
2023-03-03T14:20:06.238Z,6.03
2023-03-03T14:25:12.676Z,6.02
2023-03-03T14:30:30.763Z,6.06
2023-03-03T14:35:39.264Z,6.09
2023-03-03T14:40:45.536Z,6.14
2023-03-03T14:45:50.614Z,6.16
2023-03-03T14:51:04.761Z,6.20
2023-03-03T14:56:25.074Z,6.16
2023-03-03T15:01:34.224Z,6.12
2023-03-03T15:06:44.054Z,6.08
2023-03-03T15:11:47.362Z,6.12
2023-03-03T15:16:51.485Z,6.05
2023-03-03T15:22:06.010Z,6.04
2023-03-03T15:27:18.875Z,5.97
2023-03-03T15:32:31.499Z,5.89
2023-03-03T15:37:49.047Z,5.90
2023-03-03T15:42:59.319Z,5.82
2023-03-03T15:48:25.810Z,5.74
2023-03-03T15:53:57.075Z,5.72
2023-03-03T15:59:33.659Z,5.74
2023-03-03T16:04:42.053Z,5.68
2023-03-03T16:09:59.691Z,5.68
2023-03-03T16:15:21.131Z,5.65
2023-03-03T16:20:29.570Z,5.60
2023-03-03T16:25:45.376Z,5.56
2023-03-03T16:30:55.709Z,5.53
2023-03-03T16:36:09.774Z,5.49
2023-03-03T16:41:20.350Z,5.43
2023-03-03T16:46:33.340Z,5.43
2023-03-03T16:51:46.489Z,5.41
2023-03-03T16:57:02.211Z,5.40
2023-03-03T17:02:21.208Z,5.38
2023-03-03T17:07:40.703Z,5.32
2023-03-03T17:13:22.814Z,5.30
2023-03-03T17:18:41.300Z,5.25
2023-03-03T17:23:54.842Z,5.27
2023-03-03T17:29:11.406Z,5.25
2023-03-03T17:34:29.224Z,5.27
2023-03-03T17:39:57.398Z,5.28
2023-03-03T17:45:08.394Z,5.23
2023-03-03T17:50:29.914Z,5.22
2023-03-03T17:55:44.370Z,5.14
2023-03-03T18:01:00.962Z,5.15
2023-03-03T18:06:31.438Z,5.16
2023-03-03T18:12:01.167Z,5.15
2023-03-03T18:17:26.130Z,5.17
2023-03-03T18:22:34.653Z,5.13
2023-03-03T18:27:39.989Z,5.12
2023-03-03T18:32:46.166Z,5.11
2023-03-03T18:37:52.489Z,5.08
2023-03-03T18:42:56.908Z,5.04
2023-03-03T18:48:11.304Z,5.01
2023-03-03T18:53:26.885Z,4.98
2023-03-03T18:58:42.505Z,4.94
2023-03-03T19:04:04.816Z,4.95
2023-03-03T19:09:13.416Z,4.96
2023-03-03T19:14:25.818Z,4.90
2023-03-03T19:19:34.433Z,4.81
2023-03-03T19:24:39.386Z,4.82
2023-03-03T19:30:23.019Z,4.79
2023-03-03T19:35:37.153Z,4.77
2023-03-03T19:40:48.843Z,4.77
2023-03-03T19:46:06.543Z,4.73
2023-03-03T19:51:36.542Z,4.67
2023-03-03T19:56:51.778Z,4.62
2023-03-03T20:02:26.335Z,4.64
2023-03-03T20:07:42.393Z,4.64
2023-03-03T20:13:00.298Z,4.59
2023-03-03T20:18:29.860Z,4.60
2023-03-03T20:23:42.655Z,4.58
2023-03-03T20:29:12.542Z,4.56
2023-03-03T20:34:20.614Z,4.51
2023-03-03T20:39:38.786Z,4.51
2023-03-03T20:44:57.058Z,4.53
2023-03-03T20:50:19.160Z,4.52
2023-03-03T20:55:33.912Z,4.47
2023-03-03T21:00:44.212Z,4.40
2023-03-03T21:05:58.625Z,4.37
2023-03-03T21:11:03.682Z,4.43
2023-03-03T21:16:14.030Z,4.46
2023-03-03T21:21:17.514Z,4.40
2023-03-03T21:26:48.481Z,4.39
2023-03-03T21:31:54.973Z,4.35
2023-03-03T21:36:59.371Z,4.36
2023-03-03T21:42:05.836Z,4.29
2023-03-03T21:47:12.286Z,4.25
2023-03-03T21:52:18.436Z,4.21
2023-03-03T21:57:22.493Z,4.14
2023-03-03T22:02:27.288Z,4.11
2023-03-03T22:07:30.727Z,4.13
2023-03-03T22:12:33.945Z,4.11
2023-03-03T22:17:38.575Z,4.06
2023-03-03T22:22:42.062Z,4.02
2023-03-03T22:27:45.375Z,3.98
2023-03-03T22:32:52.363Z,3.97
2023-03-03T22:37:56.493Z,3.93
2023-03-03T22:42:59.915Z,3.92
2023-03-03T22:48:08.493Z,3.90
2023-03-03T22:53:11.844Z,3.96
2023-03-03T22:58:15.791Z,3.91
2023-03-03T23:03:21.872Z,3.88
2023-03-03T23:08:25.279Z,3.89
2023-03-03T23:13:28.528Z,3.88
2023-03-03T23:18:33.236Z,3.88
2023-03-03T23:23:36.462Z,3.88
2023-03-03T23:28:39.780Z,3.89
2023-03-03T23:33:44.548Z,3.88
2023-03-03T23:38:47.800Z,3.92
2023-03-03T23:43:51.015Z,3.94
2023-03-03T23:48:55.556Z,3.95
2023-03-03T23:53:58.790Z,3.90
2023-03-03T23:59:05.945Z,3.87
